createdAt,value
2017-05-10T00:00:46.434Z,23.17
2017-05-10T00:01:46.459Z,23.2
2017-05-10T00:02:46.484Z,23.16
2017-05-10T00:03:46.517Z,23.17
2017-05-10T00:04:46.542Z,23.12
2017-05-10T00:05:46.574Z,23.04
2017-05-10T00:06:46.589Z,23.12
2017-05-10T00:07:46.254Z,23.1
2017-05-10T00:08:46.648Z,23.1
2017-05-10T00:09:46.679Z,23.09
2017-05-10T00:10:46.388Z,23.09
2017-05-10T00:11:46.735Z,23.09
2017-05-10T00:12:46.707Z,23.07
2017-05-10T00:13:46.785Z,23.02
2017-05-10T00:14:46.814Z,23.01
2017-05-10T00:15:46.845Z,22.98
2017-05-10T00:16:46.866Z,23.07
2017-05-10T00:17:46.840Z,23.01
2017-05-10T00:18:46.613Z,23.09
2017-05-10T00:19:46.955Z,23.07
2017-05-10T00:20:46.979Z,23.05
2017-05-10T00:21:46.382Z,22.97
2017-05-10T00:22:47.283Z,22.95
2017-05-10T00:23:47.068Z,23.02
2017-05-10T00:24:47.093Z,23.02
2017-05-10T00:25:47.120Z,23.07
2017-05-10T00:26:47.140Z,22.95
2017-05-10T00:27:47.419Z,22.98
2017-05-10T00:28:47.201Z,23
2017-05-10T00:29:47.225Z,22.9
2017-05-10T00:30:47.250Z,22.94
2017-05-10T00:31:47.279Z,22.91
2017-05-10T00:32:47.284Z,22.82
2017-05-10T00:33:47.021Z,22.83
2017-05-10T00:34:47.354Z,22.83
2017-05-10T00:35:47.386Z,22.88
2017-05-10T00:36:47.099Z,22.86
2017-05-10T00:37:47.694Z,22.85
2017-05-10T00:38:47.470Z,22.88
2017-05-10T00:39:47.491Z,22.86
2017-05-10T00:40:47.520Z,22.88
2017-05-10T00:41:47.552Z,22.83
2017-05-10T00:42:47.819Z,22.82
2017-05-10T00:43:47.288Z,22.85
2017-05-10T00:44:47.320Z,22.88
2017-05-10T00:45:47.657Z,22.88
2017-05-10T00:46:47.373Z,22.9
2017-05-10T00:47:47.650Z,22.88
2017-05-10T00:48:47.751Z,22.82
2017-05-10T00:49:47.769Z,22.85
2017-05-10T00:50:47.801Z,22.83
2017-05-10T00:51:47.198Z,22.75
2017-05-10T00:52:47.791Z,22.79
2017-05-10T00:53:47.871Z,22.8
2017-05-10T00:54:47.584Z,22.79
2017-05-10T00:55:47.929Z,22.83
2017-05-10T00:56:47.643Z,22.79
2017-05-10T00:57:47.923Z,22.76
2017-05-10T00:58:48.003Z,22.75
2017-05-10T00:59:48.033Z,22.8
2017-05-10T01:00:48.060Z,22.72
2017-05-10T01:01:47.782Z,22.77
2017-05-10T01:02:48.381Z,22.75
2017-05-10T01:03:47.836Z,22.72
2017-05-10T01:04:47.863Z,22.72
2017-05-10T01:05:48.204Z,22.68
2017-05-10T01:06:48.232Z,22.68
2017-05-10T01:07:48.195Z,22.77
2017-05-10T01:08:48.279Z,22.73
2017-05-10T01:09:48.310Z,22.64
2017-05-10T01:10:47.708Z,22.8
2017-05-10T01:11:48.353Z,22.67
2017-05-10T01:12:48.318Z,22.68
2017-05-10T01:13:48.112Z,22.72
2017-05-10T01:14:48.444Z,22.8
2017-05-10T01:15:48.168Z,22.76
2017-05-10T01:16:48.186Z,22.67
2017-05-10T01:17:48.469Z,22.7
2017-05-10T01:18:48.555Z,22.67
2017-05-10T01:19:48.276Z,22.73
2017-05-10T01:20:48.611Z,22.64
2017-05-10T01:21:48.319Z,22.57
2017-05-10T01:22:48.925Z,22.61
2017-05-10T01:23:48.686Z,22.64
2017-05-10T01:24:48.404Z,22.65
2017-05-10T01:25:48.748Z,22.68
2017-05-10T01:26:48.763Z,22.67
2017-05-10T01:27:49.052Z,22.65
2017-05-10T01:28:48.508Z,22.62
2017-05-10T01:29:48.864Z,22.64
2017-05-10T01:30:48.879Z,22.6
2017-05-10T01:31:48.288Z,22.6
2017-05-10T01:32:49.177Z,22.57
2017-05-10T01:33:48.646Z,22.54
2017-05-10T01:34:48.980Z,22.61
2017-05-10T01:35:49.011Z,22.6
2017-05-10T01:36:49.036Z,22.64
2017-05-10T01:37:49.314Z,22.58
2017-05-10T01:38:48.795Z,22.49
2017-05-10T01:39:48.814Z,22.6
2017-05-10T01:40:48.832Z,22.51
2017-05-10T01:41:49.171Z,22.57
2017-05-10T01:42:49.140Z,22.57
2017-05-10T01:43:48.914Z,22.49
2017-05-10T01:44:49.255Z,22.46
2017-05-10T01:45:49.279Z,22.52
2017-05-10T01:46:49.308Z,22.54
2017-05-10T01:47:49.591Z,22.51
2017-05-10T01:48:49.049Z,22.57
2017-05-10T01:49:49.428Z,22.54
2017-05-10T01:50:49.407Z,22.43
2017-05-10T01:51:49.439Z,22.47
2017-05-10T01:52:49.468Z,22.57
2017-05-10T01:53:49.502Z,22.43
2017-05-10T01:54:49.225Z,22.51
2017-05-10T01:55:49.228Z,22.4
2017-05-10T01:56:49.577Z,22.47
2017-05-10T01:57:49.296Z,22.43
2017-05-10T01:58:49.633Z,22.46
2017-05-10T01:59:49.342Z,22.43
2017-05-10T02:00:49.373Z,22.43
2017-05-10T02:01:49.712Z,22.36
2017-05-10T02:02:49.424Z,22.37
2017-05-10T02:03:49.766Z,22.37
2017-05-10T02:04:49.209Z,22.39
2017-05-10T02:05:49.511Z,22.42
2017-05-10T02:06:49.844Z,22.37
2017-05-10T02:07:49.868Z,22.45
2017-05-10T02:08:49.589Z,22.36
2017-05-10T02:09:49.925Z,22.35
2017-05-10T02:10:49.950Z,22.35
2017-05-10T02:11:49.978Z,22.42
2017-05-10T02:12:50.003Z,22.39
2017-05-10T02:13:50.281Z,22.35
2017-05-10T02:14:49.738Z,22.39
2017-05-10T02:15:49.774Z,22.39
2017-05-10T02:16:50.108Z,22.36
2017-05-10T02:17:50.140Z,22.36
2017-05-10T02:18:49.789Z,22.33
2017-05-10T02:19:49.880Z,22.37
2017-05-10T02:20:49.905Z,22.3
2017-05-10T02:21:50.239Z,22.25
2017-05-10T02:22:50.272Z,22.25
2017-05-10T02:23:50.240Z,22.3
2017-05-10T02:24:50.321Z,22.24
2017-05-10T02:25:50.350Z,22.28
2017-05-10T02:26:50.071Z,22.36
2017-05-10T02:27:50.408Z,22.28
2017-05-10T02:28:50.685Z,22.27
2017-05-10T02:29:50.150Z,22.31
2017-05-10T02:30:50.170Z,22.31
2017-05-10T02:31:49.886Z,22.27
2017-05-10T02:32:50.227Z,22.27
2017-05-10T02:33:50.508Z,22.24
2017-05-10T02:34:50.593Z,22.27
2017-05-10T02:35:50.618Z,22.22
2017-05-10T02:36:50.654Z,22.31
2017-05-10T02:37:50.675Z,22.22
2017-05-10T02:38:50.640Z,22.28
2017-05-10T02:39:50.416Z,22.2
2017-05-10T02:40:50.761Z,22.25
2017-05-10T02:41:50.782Z,22.21
2017-05-10T02:42:50.798Z,22.22
2017-05-10T02:43:50.771Z,22.21
2017-05-10T02:44:50.545Z,22.2
2017-05-10T02:45:50.572Z,22.22
2017-05-10T02:46:50.291Z,22.21
2017-05-10T02:47:50.619Z,22.2
2017-05-10T02:48:51.219Z,22.1
2017-05-10T02:49:50.996Z,22.18
2017-05-10T02:50:51.017Z,22.17
2017-05-10T02:51:51.045Z,22.2
2017-05-10T02:52:51.078Z,22.15
2017-05-10T02:53:51.355Z,22.18
2017-05-10T02:54:50.820Z,22.12
2017-05-10T02:55:50.845Z,22.18
2017-05-10T02:56:51.181Z,22.09
2017-05-10T02:57:50.894Z,22.1
2017-05-10T02:58:51.494Z,22.06
2017-05-10T02:59:50.952Z,22.06
2017-05-10T03:00:51.284Z,22.06
2017-05-10T03:01:51.361Z,22.12
2017-05-10T03:02:51.035Z,22.15
2017-05-10T03:03:51.614Z,22.12
2017-05-10T03:04:51.403Z,22.12
2017-05-10T03:05:51.420Z,22.09
2017-05-10T03:06:50.821Z,22.1
2017-05-10T03:07:51.167Z,22.05
2017-05-10T03:08:51.187Z,22.06
2017-05-10T03:09:51.527Z,22.09
2017-05-10T03:10:51.552Z,22.12
2017-05-10T03:11:51.573Z,22.14
2017-05-10T03:12:51.302Z,22.1
2017-05-10T03:13:51.639Z,22.12
2017-05-10T03:14:51.659Z,22.06
2017-05-10T03:15:51.688Z,22.06
2017-05-10T03:16:51.716Z,22.06
2017-05-10T03:17:51.437Z,22.07
2017-05-10T03:18:51.770Z,22.06
2017-05-10T03:19:51.479Z,22.07
2017-05-10T03:20:51.818Z,22.06
2017-05-10T03:21:51.843Z,22.1
2017-05-10T03:22:51.553Z,22.05
2017-05-10T03:23:51.901Z,22.05
2017-05-10T03:24:51.930Z,22.06
2017-05-10T03:25:51.640Z,21.99
2017-05-10T03:26:51.349Z,22.02
2017-05-10T03:27:52.023Z,22.02
2017-05-10T03:28:51.409Z,22.15
2017-05-10T03:29:52.054Z,22.03
2017-05-10T03:30:51.770Z,22.09
2017-05-10T03:31:52.115Z,22.02
2017-05-10T03:32:51.829Z,22.1
2017-05-10T03:33:51.865Z,22
2017-05-10T03:34:51.874Z,22.02
2017-05-10T03:35:52.219Z,22
2017-05-10T03:36:51.930Z,22.05
2017-05-10T03:37:52.269Z,22.02
2017-05-10T03:38:52.313Z,22.02
2017-05-10T03:39:51.697Z,21.98
2017-05-10T03:40:52.031Z,22.05
2017-05-10T03:41:52.375Z,21.86
2017-05-10T03:42:52.397Z,21.92
2017-05-10T03:43:52.126Z,21.91
2017-05-10T03:44:52.465Z,21.86
2017-05-10T03:45:52.186Z,21.91
2017-05-10T03:46:52.510Z,21.96
2017-05-10T03:47:52.531Z,21.88
2017-05-10T03:48:52.256Z,21.88
2017-05-10T03:49:52.278Z,21.88
2017-05-10T03:50:52.616Z,21.96
2017-05-10T03:51:52.640Z,21.94
2017-05-10T03:52:52.356Z,21.96
2017-05-10T03:53:52.688Z,21.92
2017-05-10T03:54:52.718Z,21.98
2017-05-10T03:55:52.746Z,21.92
2017-05-10T03:56:52.455Z,21.96
2017-05-10T03:57:52.800Z,21.88
2017-05-10T03:58:52.820Z,21.91
2017-05-10T03:59:53.105Z,21.92
2017-05-10T04:00:52.567Z,21.96
2017-05-10T04:01:52.899Z,21.99
2017-05-10T04:02:52.931Z,21.98
2017-05-10T04:03:52.957Z,21.83
2017-05-10T04:04:53.229Z,21.99
2017-05-10T04:05:53.005Z,21.88
2017-05-10T04:06:53.038Z,21.98
2017-05-10T04:07:52.755Z,21.83
2017-05-10T04:08:53.092Z,21.98
2017-05-10T04:09:53.049Z,21.91
2017-05-10T04:10:53.143Z,21.92
2017-05-10T04:11:53.171Z,21.8
2017-05-10T04:12:53.241Z,21.91
2017-05-10T04:13:52.912Z,21.77
2017-05-10T04:14:52.878Z,21.88
2017-05-10T04:15:52.966Z,21.92
2017-05-10T04:16:52.677Z,21.84
2017-05-10T04:17:53.327Z,21.84
2017-05-10T04:18:53.044Z,21.86
2017-05-10T04:19:53.632Z,21.86
2017-05-10T04:20:52.786Z,21.91
2017-05-10T04:21:53.437Z,21.86
2017-05-10T04:22:53.455Z,21.88
2017-05-10T04:23:53.176Z,21.88
2017-05-10T04:24:53.760Z,21.77
2017-05-10T04:25:53.541Z,21.83
2017-05-10T04:26:53.562Z,21.9
2017-05-10T04:27:53.280Z,21.88
2017-05-10T04:28:53.299Z,21.86
2017-05-10T04:29:53.584Z,21.83
2017-05-10T04:30:53.673Z,21.88
2017-05-10T04:31:53.697Z,21.86
2017-05-10T04:32:53.098Z,21.96
2017-05-10T04:33:53.755Z,21.92
2017-05-10T04:34:54.024Z,21.96
2017-05-10T04:35:53.488Z,21.88
2017-05-10T04:36:53.833Z,21.92
2017-05-10T04:37:53.859Z,21.98
2017-05-10T04:38:53.877Z,22
2017-05-10T04:39:54.165Z,22.03
2017-05-10T04:40:53.937Z,22.03
2017-05-10T04:41:53.644Z,22.05
2017-05-10T04:42:53.998Z,22.07
2017-05-10T04:43:53.698Z,22.12
2017-05-10T04:44:54.299Z,22.05
2017-05-10T04:45:54.066Z,22.05
2017-05-10T04:46:54.094Z,22.03
2017-05-10T04:47:53.820Z,22.05
2017-05-10T04:48:54.149Z,22.09
2017-05-10T04:49:54.428Z,22.03
2017-05-10T04:50:54.203Z,22.12
2017-05-10T04:51:53.913Z,22.03
2017-05-10T04:52:54.257Z,22.09
2017-05-10T04:53:53.963Z,22.14
2017-05-10T04:54:54.562Z,22.15
2017-05-10T04:55:54.331Z,22.14
2017-05-10T04:56:53.737Z,22.15
2017-05-10T04:57:54.386Z,22.09
2017-05-10T04:58:54.103Z,22.18
2017-05-10T04:59:54.693Z,22.22
2017-05-10T05:00:54.484Z,22.2
2017-05-10T05:01:54.509Z,22.18
2017-05-10T05:02:54.517Z,22.28
2017-05-10T05:03:54.546Z,22.31
2017-05-10T05:04:54.574Z,22.35
2017-05-10T05:05:54.607Z,22.31
2017-05-10T05:06:54.331Z,22.28
2017-05-10T05:07:54.648Z,22.4
2017-05-10T05:08:54.375Z,22.39
2017-05-10T05:09:54.707Z,22.36
2017-05-10T05:10:54.724Z,22.42
2017-05-10T05:11:54.760Z,22.42
2017-05-10T05:12:54.482Z,22.35
2017-05-10T05:13:54.509Z,22.47
2017-05-10T05:14:54.834Z,22.37
2017-05-10T05:15:54.858Z,22.47
2017-05-10T05:16:54.568Z,22.47
2017-05-10T05:17:54.924Z,22.54
2017-05-10T05:18:54.629Z,22.52
2017-05-10T05:19:54.659Z,22.55
2017-05-10T05:20:54.686Z,22.52
2017-05-10T05:21:55.024Z,22.58
2017-05-10T05:22:55.045Z,22.54
2017-05-10T05:23:55.078Z,22.62
2017-05-10T05:24:55.102Z,22.64
2017-05-10T05:25:55.127Z,22.64
2017-05-10T05:26:55.149Z,22.61
2017-05-10T05:27:54.874Z,22.65
2017-05-10T05:28:54.900Z,22.68
2017-05-10T05:29:54.923Z,22.67
2017-05-10T05:30:55.264Z,22.64
2017-05-10T05:31:54.973Z,22.79
2017-05-10T05:32:55.317Z,22.72
2017-05-10T05:33:55.338Z,22.75
2017-05-10T05:34:55.371Z,22.72
2017-05-10T05:35:55.398Z,22.77
2017-05-10T05:36:55.107Z,22.7
2017-05-10T05:37:55.442Z,22.73
2017-05-10T05:38:54.861Z,22.77
2017-05-10T05:39:55.204Z,22.76
2017-05-10T05:40:55.218Z,22.79
2017-05-10T05:41:55.584Z,22.79
2017-05-10T05:42:55.579Z,22.77
2017-05-10T05:43:55.298Z,22.79
2017-05-10T05:44:55.321Z,22.82
2017-05-10T05:45:55.350Z,22.85
2017-05-10T05:46:55.696Z,22.8
2017-05-10T05:47:55.397Z,22.85
2017-05-10T05:48:55.441Z,22.85
2017-05-10T05:49:55.462Z,22.86
2017-05-10T05:50:55.801Z,22.88
2017-05-10T05:51:55.820Z,22.9
2017-05-10T05:52:55.844Z,22.82
2017-05-10T05:53:55.945Z,22.86
2017-05-10T05:54:55.589Z,22.91
2017-05-10T05:55:55.926Z,22.83
2017-05-10T05:56:55.643Z,22.8
2017-05-10T05:57:55.983Z,22.9
2017-05-10T05:58:56.025Z,22.88
2017-05-10T05:59:56.037Z,22.92
2017-05-10T06:00:56.309Z,22.9
2017-05-10T06:01:56.090Z,22.92
2017-05-10T06:02:56.122Z,22.94
2017-05-10T06:03:56.149Z,22.85
2017-05-10T06:04:56.174Z,22.94
2017-05-10T06:05:56.451Z,22.94
2017-05-10T06:06:55.911Z,23.04
2017-05-10T06:07:55.938Z,22.97
2017-05-10T06:08:56.279Z,22.95
2017-05-10T06:09:55.998Z,22.95
2017-05-10T06:10:56.586Z,23.05
2017-05-10T06:11:56.054Z,23.05
2017-05-10T06:12:56.391Z,23.02
2017-05-10T06:13:56.096Z,23
2017-05-10T06:14:56.449Z,23.07
2017-05-10T06:15:56.723Z,23.07
2017-05-10T06:16:56.499Z,23.04
2017-05-10T06:17:56.527Z,23.05
2017-05-10T06:18:56.236Z,23.07
2017-05-10T06:19:56.573Z,23.01
2017-05-10T06:20:56.858Z,23.05
2017-05-10T06:21:56.643Z,23.05
2017-05-10T06:22:56.660Z,23.09
2017-05-10T06:23:56.372Z,23.1
2017-05-10T06:24:56.401Z,23.09
2017-05-10T06:25:56.673Z,23.13
2017-05-10T06:26:56.457Z,23.19
2017-05-10T06:27:56.483Z,23.1
2017-05-10T06:28:56.816Z,23.09
2017-05-10T06:29:56.224Z,23.15
2017-05-10T06:30:56.814Z,23.17
2017-05-10T06:31:56.585Z,23.19
2017-05-10T06:32:56.934Z,23.17
2017-05-10T06:33:56.653Z,23.22
2017-05-10T06:34:57.001Z,23.2
2017-05-10T06:35:57.274Z,23.23
2017-05-10T06:36:57.045Z,23.17
2017-05-10T06:37:56.762Z,23.15
2017-05-10T06:38:56.788Z,23.2
2017-05-10T06:39:57.117Z,23.16
2017-05-10T06:40:57.398Z,23.19
2017-05-10T06:41:57.186Z,23.22
2017-05-10T06:42:57.199Z,23.17
2017-05-10T06:43:56.916Z,23.19
2017-05-10T06:44:56.956Z,23.2
2017-05-10T06:45:57.537Z,23.17
2017-05-10T06:46:57.310Z,23.22
2017-05-10T06:47:57.026Z,23.22
2017-05-10T06:48:57.368Z,23.13
2017-05-10T06:49:57.070Z,23.16
2017-05-10T06:50:57.701Z,23.22
2017-05-10T06:51:57.122Z,23.16
2017-05-10T06:52:57.470Z,23.07
2017-05-10T06:53:57.186Z,23.17
2017-05-10T06:54:57.203Z,23.16
2017-05-10T06:55:57.541Z,23.12
2017-05-10T06:56:57.582Z,23.09
2017-05-10T06:57:57.610Z,23.09
2017-05-10T06:58:57.624Z,23.12
2017-05-10T06:59:57.036Z,23.09
2017-05-10T07:00:57.694Z,23.09
2017-05-10T07:01:57.714Z,23.09
2017-05-10T07:02:57.743Z,23.13
2017-05-10T07:03:57.770Z,23.09
2017-05-10T07:04:57.481Z,23.07
2017-05-10T07:05:57.825Z,23.05
2017-05-10T07:06:57.858Z,23.07
2017-05-10T07:07:57.878Z,23.05
2017-05-10T07:08:57.907Z,23.01
2017-05-10T07:09:57.620Z,23.09
2017-05-10T07:10:57.962Z,23.09
2017-05-10T07:11:57.986Z,23.1
2017-05-10T07:12:57.699Z,23.07
2017-05-10T07:13:58.038Z,23.04
2017-05-10T07:14:57.760Z,23.04
2017-05-10T07:15:58.098Z,23.07
2017-05-10T07:16:58.127Z,23.02
2017-05-10T07:17:57.843Z,23.13
2017-05-10T07:18:58.175Z,23.05
2017-05-10T07:19:58.206Z,23.04
2017-05-10T07:20:58.237Z,23.05
2017-05-10T07:21:57.950Z,23.04
2017-05-10T07:22:58.295Z,23.01
2017-05-10T07:23:58.325Z,23.05
2017-05-10T07:24:58.343Z,23.02
2017-05-10T07:25:58.381Z,23.04
2017-05-10T07:26:58.085Z,23.01
2017-05-10T07:27:58.108Z,23.07
2017-05-10T07:28:58.446Z,22.98
2017-05-10T07:29:58.472Z,23.05
2017-05-10T07:30:58.188Z,23.05
2017-05-10T07:31:58.469Z,23.04
2017-05-10T07:32:58.279Z,23.02
2017-05-10T07:33:58.276Z,23.04
2017-05-10T07:34:58.295Z,23.07
2017-05-10T07:35:58.325Z,23.05
2017-05-10T07:36:58.921Z,23.09
2017-05-10T07:37:58.378Z,23.01
2017-05-10T07:38:58.410Z,23.09
2017-05-10T07:39:58.439Z,23.09
2017-05-10T07:40:58.465Z,23.02
2017-05-10T07:41:59.045Z,23.01
2017-05-10T07:42:58.834Z,23.04
2017-05-10T07:43:58.860Z,23.07
2017-05-10T07:44:58.578Z,23.05
2017-05-10T07:45:58.913Z,23.02
2017-05-10T07:46:59.194Z,23.04
2017-05-10T07:47:58.691Z,23.02
2017-05-10T07:48:58.674Z,22.97
2017-05-10T07:49:59.016Z,23.04
2017-05-10T07:50:58.728Z,22.97
2017-05-10T07:51:59.341Z,23
2017-05-10T07:52:59.105Z,22.94
2017-05-10T07:53:59.135Z,23.04
2017-05-10T07:54:59.156Z,23.02
2017-05-10T07:55:59.180Z,23.09
2017-05-10T07:56:59.460Z,23.02
2017-05-10T07:57:59.241Z,23.05
2017-05-10T07:58:59.271Z,22.92
2017-05-10T07:59:59.299Z,23.05
2017-05-10T08:00:59.015Z,23.02
2017-05-10T08:01:59.602Z,23.02
2017-05-10T08:02:59.381Z,23.05
2017-05-10T08:03:59.406Z,23.05
2017-05-10T08:04:59.443Z,23.05
2017-05-10T08:05:59.456Z,23.07
2017-05-10T08:06:59.741Z,23.02
2017-05-10T08:07:59.198Z,23.05
2017-05-10T08:08:59.544Z,23.02
2017-05-10T08:09:58.947Z,23
2017-05-10T08:10:59.593Z,23.01
2017-05-10T08:11:59.877Z,23.04
2017-05-10T08:12:59.646Z,23
2017-05-10T08:13:59.371Z,23.07
2017-05-10T08:14:59.388Z,23
2017-05-10T08:15:59.416Z,23.05
2017-05-10T08:17:00.010Z,23.05
2017-05-10T08:17:59.787Z,23.09
2017-05-10T08:18:59.494Z,23.05
2017-05-10T08:19:59.527Z,23.09
2017-05-10T08:20:59.865Z,23.07
2017-05-10T08:21:59.830Z,23.01
2017-05-10T08:22:59.605Z,23.07
2017-05-10T08:23:59.947Z,23
2017-05-10T08:24:59.973Z,23.07
2017-05-10T08:25:59.687Z,23.05
2017-05-10T08:26:59.969Z,23.05
2017-05-10T08:27:59.437Z,23.1
2017-05-10T08:28:59.453Z,23.02
2017-05-10T08:30:00.112Z,23.07
2017-05-10T08:31:00.139Z,23.05
2017-05-10T08:32:00.109Z,23.05
2017-05-10T08:32:59.570Z,23.01
2017-05-10T08:34:00.222Z,23.04
2017-05-10T08:35:00.259Z,23.05
2017-05-10T08:36:00.274Z,23.09
2017-05-10T08:37:00.557Z,23.09
2017-05-10T08:38:00.022Z,23.09
2017-05-10T08:39:00.046Z,23.09
2017-05-10T08:40:00.383Z,23.1
2017-05-10T08:41:00.404Z,23.1
2017-05-10T08:42:00.381Z,23.16
2017-05-10T08:43:00.472Z,23.07
2017-05-10T08:44:00.495Z,23.17
2017-05-10T08:45:00.208Z,23.17
2017-05-10T08:46:00.232Z,23.19
2017-05-10T08:47:00.820Z,23.17
2017-05-10T08:48:00.603Z,23.16
2017-05-10T08:49:00.326Z,23.2
2017-05-10T08:50:00.343Z,23.17
2017-05-10T08:51:00.685Z,23.17
2017-05-10T08:52:00.969Z,23.17
2017-05-10T08:53:00.744Z,23.16
2017-05-10T08:54:00.454Z,23.19
2017-05-10T08:55:00.803Z,23.2
2017-05-10T08:56:00.197Z,23.15
2017-05-10T08:57:00.476Z,23.16
2017-05-10T08:58:00.878Z,23.15
2017-05-10T08:59:00.591Z,23.17
2017-05-10T09:00:00.624Z,23.16
2017-05-10T09:01:00.991Z,23.13
2017-05-10T09:02:00.929Z,23.27
2017-05-10T09:03:01.026Z,23.16
2017-05-10T09:04:00.730Z,23.19
2017-05-10T09:05:01.067Z,23.27
2017-05-10T09:06:01.095Z,23.19
2017-05-10T09:07:01.374Z,23.23
2017-05-10T09:08:01.149Z,23.28
2017-05-10T09:09:00.874Z,23.27
2017-05-10T09:10:00.891Z,23.23
2017-05-10T09:11:01.225Z,23.2
2017-05-10T09:12:01.556Z,23.25
2017-05-10T09:13:01.294Z,23.22
2017-05-10T09:14:01.313Z,23.25
2017-05-10T09:15:01.344Z,23.25
2017-05-10T09:16:01.367Z,23.28
2017-05-10T09:17:01.336Z,23.36
2017-05-10T09:18:01.431Z,23.28
2017-05-10T09:19:01.451Z,23.28
2017-05-10T09:20:01.479Z,23.36
2017-05-10T09:21:01.509Z,23.32
2017-05-10T09:22:01.469Z,23.39
2017-05-10T09:23:01.562Z,23.32
2017-05-10T09:24:01.594Z,23.33
2017-05-10T09:25:01.659Z,23.35
2017-05-10T09:26:01.332Z,23.36
2017-05-10T09:27:01.612Z,23.35
2017-05-10T09:28:01.699Z,23.43
2017-05-10T09:29:01.418Z,23.35
2017-05-10T09:30:01.754Z,23.36
2017-05-10T09:31:01.782Z,23.43
2017-05-10T09:32:02.059Z,23.39
2017-05-10T09:33:01.521Z,23.38
2017-05-10T09:34:01.861Z,23.38
2017-05-10T09:35:01.890Z,23.39
2017-05-10T09:36:01.920Z,23.43
2017-05-10T09:37:01.888Z,23.51
2017-05-10T09:38:01.967Z,23.47
2017-05-10T09:39:02.001Z,23.53
2017-05-10T09:40:02.034Z,23.51
2017-05-10T09:41:02.055Z,23.48
2017-05-10T09:42:02.019Z,23.48
2017-05-10T09:43:02.103Z,23.48
2017-05-10T09:44:01.834Z,23.43
2017-05-10T09:45:01.855Z,23.47
2017-05-10T09:46:02.191Z,23.47
2017-05-10T09:47:02.471Z,23.47
2017-05-10T09:48:02.245Z,23.47
2017-05-10T09:49:02.278Z,23.48
2017-05-10T09:50:02.299Z,23.43
2017-05-10T09:51:02.335Z,23.54
2017-05-10T09:52:02.293Z,23.48
2017-05-10T09:53:02.380Z,23.55
2017-05-10T09:54:02.101Z,23.53
2017-05-10T09:55:02.130Z,23.54
2017-05-10T09:56:02.467Z,23.55
2017-05-10T09:57:02.435Z,23.58
2017-05-10T09:58:02.536Z,23.57
2017-05-10T09:59:02.241Z,23.58
2017-05-10T10:00:02.281Z,23.57
2017-05-10T10:01:02.608Z,23.6
2017-05-10T10:02:02.571Z,23.57
2017-05-10T10:03:02.340Z,23.66
2017-05-10T10:04:02.689Z,23.55
2017-05-10T10:05:02.401Z,23.58
2017-05-10T10:06:02.431Z,23.66
2017-05-10T10:07:03.026Z,23.66
2017-05-10T10:08:02.488Z,23.58
2017-05-10T10:09:02.516Z,23.69
2017-05-10T10:10:02.543Z,23.63
2017-05-10T10:11:02.574Z,23.63
2017-05-10T10:12:02.611Z,23.7
2017-05-10T10:13:02.935Z,23.65
2017-05-10T10:14:02.965Z,23.69
2017-05-10T10:15:02.997Z,23.68
2017-05-10T10:16:03.017Z,23.68
2017-05-10T10:17:03.048Z,23.73
2017-05-10T10:18:02.760Z,23.65
2017-05-10T10:19:03.105Z,23.69
2017-05-10T10:20:02.818Z,23.76
2017-05-10T10:21:03.158Z,23.84
2017-05-10T10:22:03.183Z,23.75
2017-05-10T10:23:02.903Z,23.76
2017-05-10T10:24:03.248Z,23.72
2017-05-10T10:25:03.264Z,23.79
2017-05-10T10:26:03.297Z,23.78
2017-05-10T10:27:03.324Z,23.76
2017-05-10T10:28:03.348Z,23.75
2017-05-10T10:29:02.760Z,23.83
2017-05-10T10:30:03.413Z,23.78
2017-05-10T10:31:03.125Z,23.83
2017-05-10T10:32:03.466Z,23.8
2017-05-10T10:33:03.493Z,23.84
2017-05-10T10:34:03.208Z,23.87
2017-05-10T10:35:03.237Z,23.84
2017-05-10T10:36:03.266Z,23.8
2017-05-10T10:37:03.608Z,23.87
2017-05-10T10:38:03.629Z,23.84
2017-05-10T10:39:03.660Z,23.88
2017-05-10T10:40:03.688Z,23.84
2017-05-10T10:41:03.721Z,23.88
2017-05-10T10:42:03.428Z,23.87
2017-05-10T10:43:03.780Z,23.87
2017-05-10T10:44:03.809Z,23.8
2017-05-10T10:45:03.836Z,23.87
2017-05-10T10:46:03.542Z,23.9
2017-05-10T10:47:03.883Z,23.98
2017-05-10T10:48:03.903Z,23.85
2017-05-10T10:49:03.629Z,23.94
2017-05-10T10:50:03.345Z,23.95
2017-05-10T10:51:03.396Z,23.95
2017-05-10T10:52:03.404Z,23.85
2017-05-10T10:53:04.046Z,23.93
2017-05-10T10:54:04.079Z,23.9
2017-05-10T10:55:04.104Z,23.9
2017-05-10T10:56:03.823Z,23.94
2017-05-10T10:57:04.161Z,23.83
2017-05-10T10:58:04.187Z,23.94
2017-05-10T10:59:04.221Z,23.94
2017-05-10T11:00:04.247Z,23.93
2017-05-10T11:01:03.966Z,23.98
2017-05-10T11:02:04.301Z,23.98
2017-05-10T11:03:04.330Z,23.95
2017-05-10T11:04:04.355Z,23.94
2017-05-10T11:05:04.077Z,23.97
2017-05-10T11:06:04.106Z,23.97
2017-05-10T11:07:04.442Z,23.94
2017-05-10T11:08:04.470Z,23.95
2017-05-10T11:09:04.499Z,23.98
2017-05-10T11:10:04.218Z,24
2017-05-10T11:11:04.556Z,23.97
2017-05-10T11:12:04.586Z,24.03
2017-05-10T11:13:03.995Z,24
2017-05-10T11:14:04.639Z,24
2017-05-10T11:15:04.665Z,24.08
2017-05-10T11:16:04.381Z,24.05
2017-05-10T11:17:04.721Z,24.06
2017-05-10T11:18:05.007Z,23.97
2017-05-10T11:19:04.783Z,23.98
2017-05-10T11:20:04.805Z,24.06
2017-05-10T11:21:04.837Z,24.12
2017-05-10T11:22:04.865Z,24.2
2017-05-10T11:23:04.831Z,24.16
2017-05-10T11:24:04.929Z,24.1
2017-05-10T11:25:04.640Z,24.2
2017-05-10T11:26:04.982Z,24.24
2017-05-10T11:27:05.001Z,24.21
2017-05-10T11:28:05.290Z,24.22
2017-05-10T11:29:04.751Z,24.31
2017-05-10T11:30:05.087Z,24.32
2017-05-10T11:31:05.120Z,24.39
2017-05-10T11:32:05.141Z,24.43
2017-05-10T11:33:05.115Z,24.49
2017-05-10T11:34:05.207Z,24.55
2017-05-10T11:35:05.231Z,24.55
2017-05-10T11:36:05.281Z,24.65
2017-05-10T11:37:04.656Z,24.67
2017-05-10T11:38:05.254Z,24.91
2017-05-10T11:39:05.034Z,24.95
2017-05-10T11:40:05.060Z,25.08
2017-05-10T11:41:05.406Z,25.23
2017-05-10T11:42:05.118Z,25.35
2017-05-10T11:43:05.711Z,25.6
2017-05-10T11:44:05.487Z,25.83
2017-05-10T11:45:04.896Z,25.92
2017-05-10T11:46:05.548Z,26.1
2017-05-10T11:47:05.270Z,26.28
2017-05-10T11:48:05.549Z,26.52
2017-05-10T11:49:05.327Z,26.63
2017-05-10T11:50:05.670Z,26.85
2017-05-10T11:51:05.700Z,27.04
2017-05-10T11:52:05.729Z,27.18
2017-05-10T11:53:05.699Z,27.22
2017-05-10T11:54:05.478Z,27.43
2017-05-10T11:55:05.820Z,27.66
2017-05-10T11:56:05.858Z,27.79
2017-05-10T11:57:05.577Z,27.9
2017-05-10T11:58:06.166Z,28
2017-05-10T11:59:05.943Z,28.18
2017-05-10T12:00:05.977Z,28.3
2017-05-10T12:01:05.697Z,28.41
2017-05-10T12:02:06.042Z,28.54
2017-05-10T12:03:06.010Z,28.64
2017-05-10T12:04:05.799Z,28.74
2017-05-10T12:05:05.820Z,28.92
2017-05-10T12:06:06.163Z,28.96
2017-05-10T12:07:06.206Z,29.06
2017-05-10T12:08:06.166Z,29.09
2017-05-10T12:09:06.259Z,29.28
2017-05-10T12:10:06.290Z,29.42
2017-05-10T12:11:06.009Z,29.46
2017-05-10T12:12:05.729Z,29.61
2017-05-10T12:13:06.641Z,29.65
2017-05-10T12:14:06.114Z,29.78
2017-05-10T12:15:06.138Z,29.9
2017-05-10T12:16:06.163Z,29.97
2017-05-10T12:17:06.517Z,30
2017-05-10T12:18:06.798Z,30.15
2017-05-10T12:19:06.271Z,30.2
2017-05-10T12:20:06.610Z,30.22
2017-05-10T12:21:06.340Z,30.43
2017-05-10T12:22:06.373Z,30.35
2017-05-10T12:23:06.966Z,30.49
2017-05-10T12:24:06.429Z,30.69
2017-05-10T12:25:06.778Z,30.58
2017-05-10T12:26:06.197Z,30.69
2017-05-10T12:27:06.842Z,30.7
2017-05-10T12:28:07.125Z,30.79
2017-05-10T12:29:06.912Z,30.84
2017-05-10T12:30:06.943Z,30.92
2017-05-10T12:31:06.971Z,31.04
2017-05-10T12:32:07.005Z,31.07
2017-05-10T12:33:07.289Z,31.1
2017-05-10T12:34:07.078Z,31.26
2017-05-10T12:35:06.814Z,31.2
2017-05-10T12:36:07.134Z,31.19
2017-05-10T12:37:07.176Z,31.25
2017-05-10T12:38:07.459Z,31.43
2017-05-10T12:39:07.287Z,31.36
2017-05-10T12:40:06.967Z,31.46
2017-05-10T12:41:07.004Z,31.5
2017-05-10T12:42:07.036Z,31.53
2017-05-10T12:43:07.029Z,31.5
2017-05-10T12:44:07.417Z,31.68
2017-05-10T12:45:07.447Z,31.66
2017-05-10T12:46:07.484Z,31.7
2017-05-10T12:47:07.208Z,31.66
2017-05-10T12:48:07.493Z,31.8
2017-05-10T12:49:07.585Z,31.85
2017-05-10T12:50:07.314Z,31.76
2017-05-10T12:51:07.644Z,31.88
2017-05-10T12:52:07.688Z,31.93
2017-05-10T12:53:07.971Z,31.96
2017-05-10T12:54:07.438Z,31.92
2017-05-10T12:55:07.496Z,31.95
2017-05-10T12:56:07.515Z,32.03
2017-05-10T12:57:07.854Z,31.99